sensor_id;sensor_type;location;lat;lon;timestamp;temperature;humidity
63802;DHT22;49949;43.060;25.624;2023-03-01T00:00:09;6.10;99.90
63802;DHT22;49949;43.060;25.624;2023-03-01T00:02:47;6.00;99.90
63802;DHT22;49949;43.060;25.624;2023-03-01T00:05:13;6.10;99.90
63802;DHT22;49949;43.060;25.624;2023-03-01T00:07:43;6.00;99.90
63802;DHT22;49949;43.060;25.624;2023-03-01T00:10:10;6.10;99.90
63802;DHT22;49949;43.060;25.624;2023-03-01T00:12:36;6.10;99.90
63802;DHT22;49949;43.060;25.624;2023-03-01T00:15:02;6.10;99.90
63802;DHT22;49949;43.060;25.624;2023-03-01T00:17:30;6.10;99.90
63802;DHT22;49949;43.060;25.624;2023-03-01T00:20:10;6.10;99.90
63802;DHT22;49949;43.060;25.624;2023-03-01T00:25:58;6.10;99.90
63802;DHT22;49949;43.060;25.624;2023-03-01T00:28:24;6.10;99.90
63802;DHT22;49949;43.060;25.624;2023-03-01T00:30:50;6.10;99.90
63802;DHT22;49949;43.060;25.624;2023-03-01T00:33:16;6.10;99.90
63802;DHT22;49949;43.060;25.624;2023-03-01T00:35:43;6.10;99.90
63802;DHT22;49949;43.060;25.624;2023-03-01T00:38:09;6.10;99.90
63802;DHT22;49949;43.060;25.624;2023-03-01T00:40:36;6.10;99.90
63802;DHT22;49949;43.060;25.624;2023-03-01T00:48:23;6.00;99.90
63802;DHT22;49949;43.060;25.624;2023-03-01T00:50:49;6.00;99.90
63802;DHT22;49949;43.060;25.624;2023-03-01T00:53:14;5.90;99.90
63802;DHT22;49949;43.060;25.624;2023-03-01T00:55:47;5.90;99.90
63802;DHT22;49949;43.060;25.624;2023-03-01T00:58:13;6.00;99.90
63802;DHT22;49949;43.060;25.624;2023-03-01T01:00:39;6.00;99.90
63802;DHT22;49949;43.060;25.624;2023-03-01T01:03:07;5.90;99.90
63802;DHT22;49949;43.060;25.624;2023-03-01T01:22:42;5.70;99.90
63802;DHT22;49949;43.060;25.624;2023-03-01T01:25:08;5.70;99.90
63802;DHT22;49949;43.060;25.624;2023-03-01T01:28:07;5.70;99.90
63802;DHT22;49949;43.060;25.624;2023-03-01T01:30:33;5.60;99.90
63802;DHT22;49949;43.060;25.624;2023-03-01T01:33:09;5.60;99.90
63802;DHT22;49949;43.060;25.624;2023-03-01T01:35:35;5.60;99.90
63802;DHT22;49949;43.060;25.624;2023-03-01T01:38:03;5.60;99.90
63802;DHT22;49949;43.060;25.624;2023-03-01T01:40:29;5.60;99.90
63802;DHT22;49949;43.060;25.624;2023-03-01T01:42:58;5.50;99.90
63802;DHT22;49949;43.060;25.624;2023-03-01T01:45:29;5.50;99.90
63802;DHT22;49949;43.060;25.624;2023-03-01T01:51:45;5.50;99.90
63802;DHT22;49949;43.060;25.624;2023-03-01T01:59:55;5.50;99.90
63802;DHT22;49949;43.060;25.624;2023-03-01T02:02:23;5.60;99.90
63802;DHT22;49949;43.060;25.624;2023-03-01T02:05:06;5.60;99.90
63802;DHT22;49949;43.060;25.624;2023-03-01T02:10:28;5.50;99.90
63802;DHT22;49949;43.060;25.624;2023-03-01T02:18:13;5.50;99.90
63802;DHT22;49949;43.060;25.624;2023-03-01T02:23:23;5.50;99.90
63802;DHT22;49949;43.060;25.624;2023-03-01T02:26:11;5.50;99.90
63802;DHT22;49949;43.060;25.624;2023-03-01T02:28:42;5.40;99.90
63802;DHT22;49949;43.060;25.624;2023-03-01T02:31:11;5.50;99.90
63802;DHT22;49949;43.060;25.624;2023-03-01T02:34:13;5.50;99.90
63802;DHT22;49949;43.060;25.624;2023-03-01T02:36:56;5.40;99.90
63802;DHT22;49949;43.060;25.624;2023-03-01T02:39:47;5.50;99.90
63802;DHT22;49949;43.060;25.624;2023-03-01T02:42:17;5.40;99.90
63802;DHT22;49949;43.060;25.624;2023-03-01T02:44:44;5.50;99.90
63802;DHT22;49949;43.060;25.624;2023-03-01T02:47:10;5.50;99.90
63802;DHT22;49949;43.060;25.624;2023-03-01T02:49:37;5.50;99.90
63802;DHT22;49949;43.060;25.624;2023-03-01T02:55:14;5.60;99.90
63802;DHT22;49949;43.060;25.624;2023-03-01T02:57:46;5.60;99.90
63802;DHT22;49949;43.060;25.624;2023-03-01T03:00:19;5.60;99.90
63802;DHT22;49949;43.060;25.624;2023-03-01T03:02:47;5.60;99.90
63802;DHT22;49949;43.060;25.624;2023-03-01T03:05:19;5.60;99.90
63802;DHT22;49949;43.060;25.624;2023-03-01T03:07:48;5.60;99.90
63802;DHT22;49949;43.060;25.624;2023-03-01T03:10:24;5.60;99.90
63802;DHT22;49949;43.060;25.624;2023-03-01T03:15:58;5.70;99.90
63802;DHT22;49949;43.060;25.624;2023-03-01T03:18:24;5.70;99.90
63802;DHT22;49949;43.060;25.624;2023-03-01T03:20:54;5.70;99.90
63802;DHT22;49949;43.060;25.624;2023-03-01T03:23:21;5.70;99.90
63802;DHT22;49949;43.060;25.624;2023-03-01T03:25:50;5.70;99.90
63802;DHT22;49949;43.060;25.624;2023-03-01T03:28:20;5.70;99.90
63802;DHT22;49949;43.060;25.624;2023-03-01T03:30:46;5.70;99.90
63802;DHT22;49949;43.060;25.624;2023-03-01T03:33:12;5.70;99.90
63802;DHT22;49949;43.060;25.624;2023-03-01T03:35:46;5.70;99.90
63802;DHT22;49949;43.060;25.624;2023-03-01T03:38:31;5.70;99.90
63802;DHT22;49949;43.060;25.624;2023-03-01T03:41:25;5.70;99.90
63802;DHT22;49949;43.060;25.624;2023-03-01T03:47:05;5.80;99.90
63802;DHT22;49949;43.060;25.624;2023-03-01T03:49:33;5.80;99.90
63802;DHT22;49949;43.060;25.624;2023-03-01T03:51:59;5.80;99.90
63802;DHT22;49949;43.060;25.624;2023-03-01T03:54:51;5.80;99.90
63802;DHT22;49949;43.060;25.624;2023-03-01T03:57:17;5.80;99.90
63802;DHT22;49949;43.060;25.624;2023-03-01T04:03:07;5.70;99.90
63802;DHT22;49949;43.060;25.624;2023-03-01T04:05:33;5.70;99.90
63802;DHT22;49949;43.060;25.624;2023-03-01T04:08:00;5.70;99.90
63802;DHT22;49949;43.060;25.624;2023-03-01T04:10:33;5.70;99.90
63802;DHT22;49949;43.060;25.624;2023-03-01T04:13:01;5.80;99.90
63802;DHT22;49949;43.060;25.624;2023-03-01T04:15:28;5.80;99.90
63802;DHT22;49949;43.060;25.624;2023-03-01T04:17:55;5.80;99.90
63802;DHT22;49949;43.060;25.624;2023-03-01T04:20:42;5.80;99.90
63802;DHT22;49949;43.060;25.624;2023-03-01T04:26:52;5.80;99.90
63802;DHT22;49949;43.060;25.624;2023-03-01T04:29:18;5.80;99.90
63802;DHT22;49949;43.060;25.624;2023-03-01T04:31:45;5.80;99.90
63802;DHT22;49949;43.060;25.624;2023-03-01T04:34:11;5.80;99.90
63802;DHT22;49949;43.060;25.624;2023-03-01T04:36:39;5.90;99.90
63802;DHT22;49949;43.060;25.624;2023-03-01T04:39:06;5.80;99.90
63802;DHT22;49949;43.060;25.624;2023-03-01T04:41:38;5.90;99.90
63802;DHT22;49949;43.060;25.624;2023-03-01T04:44:35;5.80;99.90
63802;DHT22;49949;43.060;25.624;2023-03-01T04:47:25;5.80;99.90
63802;DHT22;49949;43.060;25.624;2023-03-01T04:49:52;5.80;99.90
63802;DHT22;49949;43.060;25.624;2023-03-01T04:52:18;5.90;99.90
63802;DHT22;49949;43.060;25.624;2023-03-01T04:54:50;5.90;99.90
63802;DHT22;49949;43.060;25.624;2023-03-01T04:57:23;5.90;99.90
63802;DHT22;49949;43.060;25.624;2023-03-01T04:59:49;5.90;99.90
63802;DHT22;49949;43.060;25.624;2023-03-01T05:02:15;5.90;99.90
63802;DHT22;49949;43.060;25.624;2023-03-01T05:04:47;5.80;99.90
63802;DHT22;49949;43.060;25.624;2023-03-01T05:07:13;5.80;99.90
63802;DHT22;49949;43.060;25.624;2023-03-01T05:09:50;5.80;99.90
63802;DHT22;49949;43.060;25.624;2023-03-01T05:12:16;5.80;99.90
63802;DHT22;49949;43.060;25.624;2023-03-01T05:14:43;5.80;99.90
63802;DHT22;49949;43.060;25.624;2023-03-01T05:17:42;5.80;99.90
63802;DHT22;49949;43.060;25.624;2023-03-01T05:20:08;5.80;99.90
63802;DHT22;49949;43.060;25.624;2023-03-01T05:22:36;5.80;99.90
63802;DHT22;49949;43.060;25.624;2023-03-01T05:25:02;5.80;99.90
63802;DHT22;49949;43.060;25.624;2023-03-01T05:27:28;5.80;99.90
63802;DHT22;49949;43.060;25.624;2023-03-01T05:30:06;5.80;99.90
63802;DHT22;49949;43.060;25.624;2023-03-01T05:32:47;5.80;99.90
63802;DHT22;49949;43.060;25.624;2023-03-01T05:35:15;5.80;99.90
63802;DHT22;49949;43.060;25.624;2023-03-01T05:38:03;5.70;99.90
63802;DHT22;49949;43.060;25.624;2023-03-01T05:40:29;5.80;99.90
63802;DHT22;49949;43.060;25.624;2023-03-01T05:42:57;5.70;99.90
63802;DHT22;49949;43.060;25.624;2023-03-01T05:45:26;5.70;99.90
63802;DHT22;49949;43.060;25.624;2023-03-01T05:47:54;5.70;99.90
63802;DHT22;49949;43.060;25.624;2023-03-01T05:50:29;5.70;99.90
63802;DHT22;49949;43.060;25.624;2023-03-01T05:52:59;5.70;99.90
63802;DHT22;49949;43.060;25.624;2023-03-01T05:55:35;5.70;99.90
63802;DHT22;49949;43.060;25.624;2023-03-01T05:58:03;5.70;99.90
63802;DHT22;49949;43.060;25.624;2023-03-01T06:00:29;5.70;99.90
63802;DHT22;49949;43.060;25.624;2023-03-01T06:02:57;5.70;99.90
63802;DHT22;49949;43.060;25.624;2023-03-01T06:05:23;5.80;99.90
63802;DHT22;49949;43.060;25.624;2023-03-01T06:07:58;5.80;99.90
63802;DHT22;49949;43.060;25.624;2023-03-01T06:10:28;5.80;99.90
63802;DHT22;49949;43.060;25.624;2023-03-01T06:12:55;5.80;99.90
63802;DHT22;49949;43.060;25.624;2023-03-01T06:15:22;5.90;99.90
63802;DHT22;49949;43.060;25.624;2023-03-01T06:17:54;5.90;99.90
63802;DHT22;49949;43.060;25.624;2023-03-01T06:20:24;5.90;99.90
63802;DHT22;49949;43.060;25.624;2023-03-01T06:22:52;5.90;99.90
63802;DHT22;49949;43.060;25.624;2023-03-01T06:25:27;5.80;99.90
63802;DHT22;49949;43.060;25.624;2023-03-01T06:27:54;5.90;99.90
63802;DHT22;49949;43.060;25.624;2023-03-01T06:30:45;5.90;99.90
63802;DHT22;49949;43.060;25.624;2023-03-01T06:33:18;5.90;99.90
63802;DHT22;49949;43.060;25.624;2023-03-01T06:35:47;5.90;99.90
63802;DHT22;49949;43.060;25.624;2023-03-01T06:38:13;6.00;99.90
63802;DHT22;49949;43.060;25.624;2023-03-01T06:40:56;6.00;99.90
63802;DHT22;49949;43.060;25.624;2023-03-01T06:43:27;6.00;99.90
63802;DHT22;49949;43.060;25.624;2023-03-01T06:46:00;6.00;99.90
63802;DHT22;49949;43.060;25.624;2023-03-01T06:48:32;6.00;99.90
63802;DHT22;49949;43.060;25.624;2023-03-01T06:51:07;6.10;99.90
63802;DHT22;49949;43.060;25.624;2023-03-01T06:53:34;6.10;99.90
63802;DHT22;49949;43.060;25.624;2023-03-01T06:56:00;6.00;99.90
63802;DHT22;49949;43.060;25.624;2023-03-01T06:58:27;6.00;99.90
63802;DHT22;49949;43.060;25.624;2023-03-01T07:00:56;6.10;99.90
63802;DHT22;49949;43.060;25.624;2023-03-01T07:03:26;6.10;99.90
63802;DHT22;49949;43.060;25.624;2023-03-01T07:06:25;6.10;99.90
63802;DHT22;49949;43.060;25.624;2023-03-01T07:08:50;6.20;99.90
63802;DHT22;49949;43.060;25.624;2023-03-01T07:11:19;6.20;99.90
63802;DHT22;49949;43.060;25.624;2023-03-01T07:13:46;6.20;99.90
63802;DHT22;49949;43.060;25.624;2023-03-01T07:16:31;6.20;99.90
63802;DHT22;49949;43.060;25.624;2023-03-01T07:19:27;6.20;99.90
63802;DHT22;49949;43.060;25.624;2023-03-01T07:21:55;6.20;99.90
63802;DHT22;49949;43.060;25.624;2023-03-01T07:24:22;6.30;99.90
63802;DHT22;49949;43.060;25.624;2023-03-01T07:26:51;6.30;99.90
63802;DHT22;49949;43.060;25.624;2023-03-01T07:29:20;6.30;99.90
63802;DHT22;49949;43.060;25.624;2023-03-01T07:31:53;6.40;99.90
63802;DHT22;49949;43.060;25.624;2023-03-01T07:34:53;6.40;99.90
63802;DHT22;49949;43.060;25.624;2023-03-01T07:37:19;6.50;99.90
63802;DHT22;49949;43.060;25.624;2023-03-01T07:40:11;6.50;99.90
63802;DHT22;49949;43.060;25.624;2023-03-01T07:42:40;6.50;99.90
63802;DHT22;49949;43.060;25.624;2023-03-01T07:45:06;6.50;99.90
63802;DHT22;49949;43.060;25.624;2023-03-01T07:47:33;6.60;99.90
63802;DHT22;49949;43.060;25.624;2023-03-01T07:49:59;6.70;99.90
63802;DHT22;49949;43.060;25.624;2023-03-01T07:52:26;6.60;99.90
63802;DHT22;49949;43.060;25.624;2023-03-01T07:54:52;6.60;99.90
63802;DHT22;49949;43.060;25.624;2023-03-01T07:57:18;6.60;99.90
63802;DHT22;49949;43.060;25.624;2023-03-01T07:59:45;6.60;99.90
63802;DHT22;49949;43.060;25.624;2023-03-01T08:02:12;6.60;99.90
63802;DHT22;49949;43.060;25.624;2023-03-01T08:04:40;6.60;99.90
63802;DHT22;49949;43.060;25.624;2023-03-01T08:07:23;6.70;99.90
63802;DHT22;49949;43.060;25.624;2023-03-01T08:10:01;6.80;99.90
63802;DHT22;49949;43.060;25.624;2023-03-01T08:12:30;6.90;99.90
63802;DHT22;49949;43.060;25.624;2023-03-01T08:15:29;6.90;99.90
63802;DHT22;49949;43.060;25.624;2023-03-01T08:17:55;6.90;99.90
63802;DHT22;49949;43.060;25.624;2023-03-01T08:20:21;7.00;99.90
63802;DHT22;49949;43.060;25.624;2023-03-01T08:22:47;7.00;99.90
63802;DHT22;49949;43.060;25.624;2023-03-01T08:25:14;7.00;99.90
63802;DHT22;49949;43.060;25.624;2023-03-01T08:27:40;7.00;99.90
63802;DHT22;49949;43.060;25.624;2023-03-01T08:30:06;6.80;99.90
63802;DHT22;49949;43.060;25.624;2023-03-01T08:32:37;6.70;99.90
63802;DHT22;49949;43.060;25.624;2023-03-01T08:35:05;6.50;99.90
63802;DHT22;49949;43.060;25.624;2023-03-01T08:37:31;6.50;99.90
63802;DHT22;49949;43.060;25.624;2023-03-01T08:40:00;6.50;99.90
63802;DHT22;49949;43.060;25.624;2023-03-01T08:42:26;6.50;99.90
63802;DHT22;49949;43.060;25.624;2023-03-01T08:44:52;6.50;99.90
63802;DHT22;49949;43.060;25.624;2023-03-01T08:47:20;6.50;99.90
63802;DHT22;49949;43.060;25.624;2023-03-01T08:49:46;6.50;99.90
63802;DHT22;49949;43.060;25.624;2023-03-01T08:52:12;6.50;99.90
63802;DHT22;49949;43.060;25.624;2023-03-01T08:54:39;6.50;99.90
63802;DHT22;49949;43.060;25.624;2023-03-01T08:57:06;6.60;99.90
63802;DHT22;49949;43.060;25.624;2023-03-01T08:59:32;6.50;99.90
63802;DHT22;49949;43.060;25.624;2023-03-01T09:02:03;6.60;99.90
63802;DHT22;49949;43.060;25.624;2023-03-01T09:04:30;6.60;99.90
63802;DHT22;49949;43.060;25.624;2023-03-01T09:07:05;6.30;99.90
63802;DHT22;49949;43.060;25.624;2023-03-01T09:09:35;6.30;99.90
63802;DHT22;49949;43.060;25.624;2023-03-01T09:12:11;6.30;99.90
63802;DHT22;49949;43.060;25.624;2023-03-01T09:14:42;6.30;99.90
63802;DHT22;49949;43.060;25.624;2023-03-01T09:17:08;6.20;99.90
63802;DHT22;49949;43.060;25.624;2023-03-01T09:19:34;6.30;99.90
63802;DHT22;49949;43.060;25.624;2023-03-01T09:22:00;6.30;99.90
63802;DHT22;49949;43.060;25.624;2023-03-01T09:24:26;6.30;99.90
63802;DHT22;49949;43.060;25.624;2023-03-01T09:27:03;6.30;99.90
63802;DHT22;49949;43.060;25.624;2023-03-01T09:29:38;6.40;99.90
63802;DHT22;49949;43.060;25.624;2023-03-01T09:32:40;6.50;99.90
63802;DHT22;49949;43.060;25.624;2023-03-01T09:35:10;6.50;99.90
63802;DHT22;49949;43.060;25.624;2023-03-01T09:37:38;6.60;99.90
63802;DHT22;49949;43.060;25.624;2023-03-01T09:40:06;6.60;99.90
63802;DHT22;49949;43.060;25.624;2023-03-01T09:42:35;6.70;99.90
63802;DHT22;49949;43.060;25.624;2023-03-01T09:45:29;6.80;99.90
63802;DHT22;49949;43.060;25.624;2023-03-01T09:48:08;6.80;99.90
63802;DHT22;49949;43.060;25.624;2023-03-01T09:50:58;6.90;99.90
63802;DHT22;49949;43.060;25.624;2023-03-01T09:53:36;7.00;99.90
63802;DHT22;49949;43.060;25.624;2023-03-01T09:56:21;7.10;99.90
63802;DHT22;49949;43.060;25.624;2023-03-01T10:10:38;7.60;99.90
63802;DHT22;49949;43.060;25.624;2023-03-01T10:13:16;7.60;99.90
63802;DHT22;49949;43.060;25.624;2023-03-01T10:16:04;7.60;99.90
63802;DHT22;49949;43.060;25.624;2023-03-01T10:18:35;7.70;99.90
63802;DHT22;49949;43.060;25.624;2023-03-01T10:21:17;7.70;99.90
63802;DHT22;49949;43.060;25.624;2023-03-01T10:23:55;7.50;99.90
63802;DHT22;49949;43.060;25.624;2023-03-01T10:26:38;7.60;99.90
63802;DHT22;49949;43.060;25.624;2023-03-01T10:31:48;7.60;99.90
63802;DHT22;49949;43.060;25.624;2023-03-01T10:34:32;7.50;99.90
63802;DHT22;49949;43.060;25.624;2023-03-01T10:37:19;7.50;99.90
63802;DHT22;49949;43.060;25.624;2023-03-01T10:40:11;7.50;99.90
63802;DHT22;49949;43.060;25.624;2023-03-01T10:42:52;7.40;99.90
63802;DHT22;49949;43.060;25.624;2023-03-01T10:45:38;7.40;99.90
63802;DHT22;49949;43.060;25.624;2023-03-01T10:48:23;7.40;99.90
63802;DHT22;49949;43.060;25.624;2023-03-01T10:53:35;7.30;99.90
63802;DHT22;49949;43.060;25.624;2023-03-01T10:56:09;7.30;99.90
63802;DHT22;49949;43.060;25.624;2023-03-01T10:58:39;7.30;99.90
63802;DHT22;49949;43.060;25.624;2023-03-01T11:03:41;7.20;99.90
63802;DHT22;49949;43.060;25.624;2023-03-01T11:08:43;7.20;99.90
63802;DHT22;49949;43.060;25.624;2023-03-01T11:13:58;7.30;99.90
63802;DHT22;49949;43.060;25.624;2023-03-01T11:16:34;7.30;99.90
63802;DHT22;49949;43.060;25.624;2023-03-01T11:24:27;7.40;99.90
63802;DHT22;49949;43.060;25.624;2023-03-01T11:27:31;7.40;99.90
63802;DHT22;49949;43.060;25.624;2023-03-01T11:32:47;7.40;99.90
63802;DHT22;49949;43.060;25.624;2023-03-01T11:36:00;7.50;99.90
63802;DHT22;49949;43.060;25.624;2023-03-01T11:38:44;7.50;99.90
63802;DHT22;49949;43.060;25.624;2023-03-01T11:41:15;7.50;99.90
63802;DHT22;49949;43.060;25.624;2023-03-01T11:43:51;7.50;99.90
63802;DHT22;49949;43.060;25.624;2023-03-01T11:54:40;7.60;99.90
63802;DHT22;49949;43.060;25.624;2023-03-01T12:00:16;7.50;99.90
63802;DHT22;49949;43.060;25.624;2023-03-01T12:06:28;7.40;99.90
63802;DHT22;49949;43.060;25.624;2023-03-01T12:09:17;7.40;99.90
63802;DHT22;49949;43.060;25.624;2023-03-01T12:20:49;7.30;99.90
63802;DHT22;49949;43.060;25.624;2023-03-01T12:34:47;7.60;99.90
63802;DHT22;49949;43.060;25.624;2023-03-01T12:43:22;7.60;99.90
63802;DHT22;49949;43.060;25.624;2023-03-01T12:49:13;7.60;99.90
63802;DHT22;49949;43.060;25.624;2023-03-01T12:51:46;7.50;99.90
63802;DHT22;49949;43.060;25.624;2023-03-01T12:54:33;7.50;99.90
63802;DHT22;49949;43.060;25.624;2023-03-01T12:57:12;7.40;99.90
63802;DHT22;49949;43.060;25.624;2023-03-01T12:59:55;7.40;99.90
63802;DHT22;49949;43.060;25.624;2023-03-01T13:02:58;7.30;99.90
63802;DHT22;49949;43.060;25.624;2023-03-01T13:08:59;7.30;99.90
63802;DHT22;49949;43.060;25.624;2023-03-01T13:15:24;7.20;99.90
63802;DHT22;49949;43.060;25.624;2023-03-01T13:26:09;7.30;99.90
63802;DHT22;49949;43.060;25.624;2023-03-01T13:28:51;7.20;99.90
63802;DHT22;49949;43.060;25.624;2023-03-01T13:34:02;7.20;99.90
63802;DHT22;49949;43.060;25.624;2023-03-01T13:41:58;7.20;99.90
63802;DHT22;49949;43.060;25.624;2023-03-01T13:44:34;7.20;99.90
63802;DHT22;49949;43.060;25.624;2023-03-01T13:50:03;7.20;99.90
63802;DHT22;49949;43.060;25.624;2023-03-01T13:52:54;7.20;99.90
63802;DHT22;49949;43.060;25.624;2023-03-01T13:56:36;7.20;99.90
63802;DHT22;49949;43.060;25.624;2023-03-01T13:59:18;7.20;99.90
63802;DHT22;49949;43.060;25.624;2023-03-01T14:01:55;7.20;99.90
63802;DHT22;49949;43.060;25.624;2023-03-01T14:04:28;7.20;99.90
63802;DHT22;49949;43.060;25.624;2023-03-01T14:07:20;7.30;99.90
63802;DHT22;49949;43.060;25.624;2023-03-01T14:09:52;7.30;99.90
63802;DHT22;49949;43.060;25.624;2023-03-01T14:12:43;7.30;99.90
63802;DHT22;49949;43.060;25.624;2023-03-01T14:15:45;7.40;99.90
63802;DHT22;49949;43.060;25.624;2023-03-01T14:18:21;7.40;99.90
63802;DHT22;49949;43.060;25.624;2023-03-01T14:20:53;7.50;99.90
63802;DHT22;49949;43.060;25.624;2023-03-01T14:23:27;7.50;99.90
63802;DHT22;49949;43.060;25.624;2023-03-01T14:25:57;7.40;99.90
63802;DHT22;49949;43.060;25.624;2023-03-01T14:28:32;7.40;99.90
63802;DHT22;49949;43.060;25.624;2023-03-01T14:31:32;7.40;99.90
63802;DHT22;49949;43.060;25.624;2023-03-01T14:33:59;7.30;99.90
63802;DHT22;49949;43.060;25.624;2023-03-01T14:36:34;7.30;99.90
63802;DHT22;49949;43.060;25.624;2023-03-01T14:39:23;7.30;99.90
63802;DHT22;49949;43.060;25.624;2023-03-01T14:41:50;7.20;99.90
63802;DHT22;49949;43.060;25.624;2023-03-01T14:44:23;7.20;99.90
63802;DHT22;49949;43.060;25.624;2023-03-01T14:46:55;7.20;99.90
63802;DHT22;49949;43.060;25.624;2023-03-01T14:49:28;7.20;99.90
63802;DHT22;49949;43.060;25.624;2023-03-01T14:52:06;7.20;99.90
63802;DHT22;49949;43.060;25.624;2023-03-01T14:54:43;7.20;99.90
63802;DHT22;49949;43.060;25.624;2023-03-01T14:57:26;7.10;99.90
63802;DHT22;49949;43.060;25.624;2023-03-01T14:59:55;7.10;99.90
63802;DHT22;49949;43.060;25.624;2023-03-01T15:02:28;7.10;99.90
63802;DHT22;49949;43.060;25.624;2023-03-01T15:07:32;7.10;99.90
63802;DHT22;49949;43.060;25.624;2023-03-01T15:10:00;7.20;99.90
63802;DHT22;49949;43.060;25.624;2023-03-01T15:20:47;7.10;99.90
63802;DHT22;49949;43.060;25.624;2023-03-01T15:23:30;7.20;99.90
63802;DHT22;49949;43.060;25.624;2023-03-01T15:25:57;7.20;99.90
63802;DHT22;49949;43.060;25.624;2023-03-01T15:28:57;7.10;99.90
63802;DHT22;49949;43.060;25.624;2023-03-01T15:31:35;7.10;99.90
63802;DHT22;49949;43.060;25.624;2023-03-01T15:34:25;7.10;99.90
63802;DHT22;49949;43.060;25.624;2023-03-01T15:37:03;7.10;99.90
63802;DHT22;49949;43.060;25.624;2023-03-01T15:48:19;7.10;99.90
63802;DHT22;49949;43.060;25.624;2023-03-01T15:51:13;7.10;99.90
63802;DHT22;49949;43.060;25.624;2023-03-01T15:54:05;7.10;99.90
63802;DHT22;49949;43.060;25.624;2023-03-01T15:56:35;7.10;99.90
63802;DHT22;49949;43.060;25.624;2023-03-01T15:59:02;7.00;99.90
63802;DHT22;49949;43.060;25.624;2023-03-01T16:01:29;7.00;99.90
63802;DHT22;49949;43.060;25.624;2023-03-01T16:03:58;7.00;99.90
63802;DHT22;49949;43.060;25.624;2023-03-01T16:10:11;7.00;99.90
63802;DHT22;49949;43.060;25.624;2023-03-01T16:12:37;7.00;99.90
63802;DHT22;49949;43.060;25.624;2023-03-01T16:15:08;6.90;99.90
63802;DHT22;49949;43.060;25.624;2023-03-01T16:17:39;6.90;99.90
63802;DHT22;49949;43.060;25.624;2023-03-01T16:20:05;6.90;99.90
63802;DHT22;49949;43.060;25.624;2023-03-01T16:25:41;6.90;99.90
63802;DHT22;49949;43.060;25.624;2023-03-01T16:28:07;6.90;99.90
63802;DHT22;49949;43.060;25.624;2023-03-01T16:33:57;6.80;99.90
63802;DHT22;49949;43.060;25.624;2023-03-01T16:36:27;6.80;99.90
63802;DHT22;49949;43.060;25.624;2023-03-01T16:38:55;6.80;99.90
63802;DHT22;49949;43.060;25.624;2023-03-01T16:44:47;6.80;99.90
63802;DHT22;49949;43.060;25.624;2023-03-01T16:47:13;6.80;99.90
63802;DHT22;49949;43.060;25.624;2023-03-01T16:49:39;6.80;99.90
63802;DHT22;49949;43.060;25.624;2023-03-01T16:52:06;6.70;99.90
63802;DHT22;49949;43.060;25.624;2023-03-01T16:54:39;6.70;99.90
63802;DHT22;49949;43.060;25.624;2023-03-01T16:57:05;6.80;99.90
63802;DHT22;49949;43.060;25.624;2023-03-01T16:59:31;6.80;99.90
63802;DHT22;49949;43.060;25.624;2023-03-01T17:01:57;6.80;99.90
63802;DHT22;49949;43.060;25.624;2023-03-01T17:04:23;6.80;99.90
63802;DHT22;49949;43.060;25.624;2023-03-01T17:06:49;6.80;99.90
63802;DHT22;49949;43.060;25.624;2023-03-01T17:09:26;6.80;99.90
63802;DHT22;49949;43.060;25.624;2023-03-01T17:11:59;6.80;99.90
63802;DHT22;49949;43.060;25.624;2023-03-01T17:15:06;6.80;99.90
63802;DHT22;49949;43.060;25.624;2023-03-01T17:17:39;6.70;99.90
63802;DHT22;49949;43.060;25.624;2023-03-01T17:20:07;6.80;99.90
63802;DHT22;49949;43.060;25.624;2023-03-01T17:22:33;6.70;99.90
63802;DHT22;49949;43.060;25.624;2023-03-01T17:24:59;6.70;99.90
63802;DHT22;49949;43.060;25.624;2023-03-01T17:27:31;6.70;99.90
63802;DHT22;49949;43.060;25.624;2023-03-01T17:30:00;6.70;99.90
63802;DHT22;49949;43.060;25.624;2023-03-01T17:32:26;6.70;99.90
63802;DHT22;49949;43.060;25.624;2023-03-01T17:34:51;6.70;99.90
63802;DHT22;49949;43.060;25.624;2023-03-01T17:37:17;6.70;99.90
63802;DHT22;49949;43.060;25.624;2023-03-01T17:39:44;6.60;99.90
63802;DHT22;49949;43.060;25.624;2023-03-01T17:42:10;6.60;99.90
63802;DHT22;49949;43.060;25.624;2023-03-01T17:44:36;6.60;99.90
63802;DHT22;49949;43.060;25.624;2023-03-01T17:47:07;6.60;99.90
63802;DHT22;49949;43.060;25.624;2023-03-01T17:49:33;6.60;99.90
63802;DHT22;49949;43.060;25.624;2023-03-01T17:51:58;6.50;99.90
63802;DHT22;49949;43.060;25.624;2023-03-01T17:54:24;6.60;99.90
63802;DHT22;49949;43.060;25.624;2023-03-01T17:56:50;6.60;99.90
63802;DHT22;49949;43.060;25.624;2023-03-01T17:59:16;6.60;99.90
63802;DHT22;49949;43.060;25.624;2023-03-01T18:01:42;6.60;99.90
63802;DHT22;49949;43.060;25.624;2023-03-01T18:04:08;6.60;99.90
63802;DHT22;49949;43.060;25.624;2023-03-01T18:06:35;6.50;99.90
63802;DHT22;49949;43.060;25.624;2023-03-01T18:09:11;6.50;99.90
63802;DHT22;49949;43.060;25.624;2023-03-01T18:11:46;6.50;99.90
63802;DHT22;49949;43.060;25.624;2023-03-01T18:14:11;6.40;99.90
63802;DHT22;49949;43.060;25.624;2023-03-01T18:16:37;6.30;99.90
63802;DHT22;49949;43.060;25.624;2023-03-01T18:19:19;6.30;99.90
63802;DHT22;49949;43.060;25.624;2023-03-01T18:21:45;6.30;99.90
63802;DHT22;49949;43.060;25.624;2023-03-01T18:24:13;6.30;99.90
63802;DHT22;49949;43.060;25.624;2023-03-01T18:26:50;6.30;99.90
63802;DHT22;49949;43.060;25.624;2023-03-01T18:29:16;6.20;99.90
63802;DHT22;49949;43.060;25.624;2023-03-01T18:31:42;6.20;99.90
63802;DHT22;49949;43.060;25.624;2023-03-01T18:34:12;6.20;99.90
63802;DHT22;49949;43.060;25.624;2023-03-01T18:36:38;6.20;99.90
63802;DHT22;49949;43.060;25.624;2023-03-01T18:39:06;6.20;99.90
63802;DHT22;49949;43.060;25.624;2023-03-01T18:41:34;6.20;99.90
63802;DHT22;49949;43.060;25.624;2023-03-01T18:44:02;6.10;99.90
63802;DHT22;49949;43.060;25.624;2023-03-01T18:46:29;6.20;99.90
63802;DHT22;49949;43.060;25.624;2023-03-01T18:48:57;6.20;99.90
63802;DHT22;49949;43.060;25.624;2023-03-01T18:51:25;6.20;99.90
63802;DHT22;49949;43.060;25.624;2023-03-01T18:53:52;6.20;99.90
63802;DHT22;49949;43.060;25.624;2023-03-01T18:56:24;6.20;99.90
63802;DHT22;49949;43.060;25.624;2023-03-01T18:58:55;6.20;99.90
63802;DHT22;49949;43.060;25.624;2023-03-01T19:01:23;6.20;99.90
63802;DHT22;49949;43.060;25.624;2023-03-01T19:03:50;6.10;99.90
63802;DHT22;49949;43.060;25.624;2023-03-01T19:06:17;6.10;99.90
63802;DHT22;49949;43.060;25.624;2023-03-01T19:08:47;6.10;99.90
63802;DHT22;49949;43.060;25.624;2023-03-01T19:11:16;6.10;99.90
63802;DHT22;49949;43.060;25.624;2023-03-01T19:13:55;6.10;99.90
63802;DHT22;49949;43.060;25.624;2023-03-01T19:16:27;6.10;99.90
63802;DHT22;49949;43.060;25.624;2023-03-01T19:19:05;6.10;99.90
63802;DHT22;49949;43.060;25.624;2023-03-01T19:21:35;6.10;99.90
63802;DHT22;49949;43.060;25.624;2023-03-01T19:24:01;6.00;99.90